Time;durP1;ratioP1;P1;durP2;ratioP2;P2;SDS_P1;SDS_P2;PMS_P1;PMS_P2;Temp;Humidity;BMP_temperature;BMP_pressure;BME280_temperature;BME280_humidity;BME280_pressure;Samples;Min_cycle;Max_cycle;Signal;HPM_P1;HPM_P2
2023/12/22 00:02:16;;;;;;;;;;;;;;;;;;5047097;28;5100;-59
2023/12/22 00:04:41;;;;;;;;;;;;;;;;;;5034548;28;5177;-59
2023/12/22 00:07:06;;;;;;;;;;;;;;;;;;5041144;28;1922;-59
2023/12/22 00:09:31;;;;;;;;;;;;;;;;;;5046875;28;5176;-59
2023/12/22 00:11:57;;;;;;;;;;;;;;;;;;5037897;28;4445;-59
2023/12/22 00:14:22;;;;;;;;;;;;;;;;;;5041286;28;5106;-59
2023/12/22 00:16:47;;;;;;;;;;;;;;;;;;5041909;28;4702;-58
2023/12/22 00:19:13;;;;;;;;;;;;;;;;;;5042499;28;1133;-59
2023/12/22 00:21:38;;;;;;;;;;;;;;;;;;5039003;28;4449;-59
2023/12/22 00:24:04;;;;;;;;;;;;;;;;;;5043556;28;5158;-59
2023/12/22 00:26:29;;;;;;;;;;;;;;;;;;5043061;28;5080;-58
2023/12/22 00:28:54;;;;;;;;;;;;;;;;;;5040894;28;4589;-58
2023/12/22 00:31:19;;;;;;;;;;;;;;;;;;5042362;28;3593;-58
2023/12/22 00:33:45;;;;;;;;;;;;;;;;;;5030718;28;5144;-58
2023/12/22 00:36:10;;;;;;;;;;;;;;;;;;5035502;28;5073;-59
2023/12/22 00:38:36;;;;;;;;;;;;;;;;;;5041200;28;5221;-58
2023/12/22 00:41:01;;;;;;;;;;;;;;;;;;5041111;28;5110;-60
2023/12/22 00:43:26;;;;;;;;;;;;;;;;;;5039359;28;4995;-58
2023/12/22 00:45:51;;;;;;;;;;;;;;;;;;5039714;28;4435;-58
2023/12/22 00:48:18;;;;;;;;;;;;;;;;;;5037942;28;5045;-58
2023/12/22 00:50:43;;;;;;;;;;;;;;;;;;5044471;28;4958;-59
2023/12/22 00:53:08;;;;;;;;;;;;;;;;;;5038982;28;4590;-59
2023/12/22 00:55:33;;;;;;;;;;;;;;;;;;5042797;28;5522;-59
2023/12/22 00:57:59;;;;;;;;;;;;;;;;;;5043141;28;3606;-59
2023/12/22 01:00:24;;;;;;;;;;;;;;;;;;5040128;28;5232;-59
2023/12/22 01:02:49;;;;;;;;;;;;;;;;;;5042736;28;4555;-59
2023/12/22 01:05:15;;;;;;;;;;;;;;;;;;5037917;28;5175;-59
2023/12/22 01:07:40;;;;;;;;;;;;;;;;;;5039128;28;4831;-59
2023/12/22 01:10:05;;;;;;;;;;;;;;;;;;5042918;28;3546;-58
2023/12/22 01:12:31;;;;;;;;;;;;;;;;;;5037496;28;5026;-59
2023/12/22 01:14:56;;;;;;;;;;;;;;;;;;5042047;28;5551;-59
2023/12/22 01:17:22;;;;;;;;;;;;;;;;;;5040692;28;4513;-58
2023/12/22 01:19:47;;;;;;;;;;;;;;;;;;5044473;28;5056;-57
2023/12/22 01:22:12;;;;;;;;;;;;;;;;;;5041741;28;3534;-58
2023/12/22 01:24:40;;;;;;;;;;;;;;;;;;5046177;28;5148;-58
2023/12/22 01:27:06;;;;;;;;;;;;;;;;;;5038464;28;4626;-58
2023/12/22 01:29:31;;;;;;;;;;;;;;;;;;5045198;28;5042;-58
2023/12/22 01:31:56;;;;;;;;;;;;;;;;;;5044281;28;5065;-58
2023/12/22 01:34:22;;;;;;;;;;;;;;;;;;5044994;28;5124;-58
2023/12/22 01:36:47;;;;;;;;;;;;;;;;;;5040240;28;5078;-59
2023/12/22 01:39:12;;;;;;;;;;;;;;;;;;5042920;28;4670;-59
2023/12/22 01:41:38;;;;;;;;;;;;;;;;;;5044448;28;5073;-58
2023/12/22 01:44:03;;;;;;;;;;;;;;;;;;5045023;28;4996;-58
2023/12/22 01:46:28;;;;;;;;;;;;;;;;;;5038629;28;5161;-58
2023/12/22 01:48:53;;;;;;;;;;;;;;;;;;5041718;28;3605;-59
2023/12/22 01:51:19;;;;;;;;;;;;;;;;;;5041135;28;5004;-58
2023/12/22 01:53:44;;;;;;;;;;;;;;;;;;5037581;28;4677;-59
2023/12/22 01:56:09;;;;;;;;;;;;;;;;;;5042871;28;5141;-58
2023/12/22 01:58:35;;;;;;;;;;;;;;;;;;5041632;28;5046;-58
2023/12/22 02:01:00;;;;;;;;;;;;;;;;;;5038080;28;3454;-58
2023/12/22 02:03:26;;;;;;;;;;;;;;;;;;5040670;28;4634;-60
2023/12/22 02:05:51;;;;;;;;;;;;;;;;;;5038546;28;5027;-58
2023/12/22 02:08:21;;;;;;;;;;;;;;;;;;5043398;28;5101;-58
2023/12/22 02:10:46;;;;;;;;;;;;;;;;;;5039494;28;5071;-58
2023/12/22 02:13:12;;;;;;;;;;;;;;;;;;5036962;28;3622;-58
2023/12/22 02:15:37;;;;;;;;;;;;;;;;;;5044658;28;4941;-58
2023/12/22 02:18:04;;;;;;;;;;;;;;;;;;5039238;28;5115;-59
2023/12/22 02:20:30;;;;;;;;;;;;;;;;;;5040782;28;4890;-58
2023/12/22 02:22:55;;;;;;;;;;;;;;;;;;5041640;28;4679;-58
2023/12/22 02:25:20;;;;;;;;;;;;;;;;;;5042419;28;3411;-58
2023/12/22 02:27:49;;;;;;;;;;;;;;;;;;5035218;28;4452;-58
2023/12/22 02:30:20;;;;;;;;;;;;;;;;;;5043313;28;5121;-58
2023/12/22 02:32:46;;;;;;;;;;;;;;;;;;5037165;28;5039;-58
2023/12/22 02:35:14;;;;;;;;;;;;;;;;;;5035315;28;5184;-58
2023/12/22 02:37:40;;;;;;;;;;;;;;;;;;5038468;28;4583;-58
2023/12/22 02:40:05;;;;;;;;;;;;;;;;;;5042109;28;3474;-59
2023/12/22 02:42:30;;;;;;;;;;;;;;;;;;5039984;28;4708;-58
2023/12/22 02:44:57;;;;;;;;;;;;;;;;;;5031036;28;5024;-58
2023/12/22 02:47:23;;;;;;;;;;;;;;;;;;5038999;28;5202;-57
2023/12/22 02:49:48;;;;;;;;;;;;;;;;;;5040759;28;5189;-58
2023/12/22 02:52:13;;;;;;;;;;;;;;;;;;5039445;28;3615;-58
2023/12/22 02:54:39;;;;;;;;;;;;;;;;;;5041024;28;4852;-58
2023/12/22 02:57:06;;;;;;;;;;;;;;;;;;5038384;28;5084;-59
2023/12/22 02:59:31;;;;;;;;;;;;;;;;;;5044828;28;5091;-58
2023/12/22 03:01:57;;;;;;;;;;;;;;;;;;5040607;28;5024;-59
2023/12/22 03:04:22;;;;;;;;;;;;;;;;;;5045456;28;1143;-58
2023/12/22 03:06:47;;;;;;;;;;;;;;;;;;5047646;28;4661;-58
2023/12/22 03:09:12;;;;;;;;;;;;;;;;;;5046838;28;4615;-59
2023/12/22 03:11:38;;;;;;;;;;;;;;;;;;5046648;28;5303;-59
2023/12/22 03:14:03;;;;;;;;;;;;;;;;;;5044271;28;5131;-59
2023/12/22 03:16:28;;;;;;;;;;;;;;;;;;5046098;28;5174;-59
2023/12/22 03:18:54;;;;;;;;;;;;;;;;;;5042991;28;3407;-58
2023/12/22 03:21:19;;;;;;;;;;;;;;;;;;5043880;28;5055;-58
2023/12/22 03:23:45;;;;;;;;;;;;;;;;;;5048405;28;5116;-58
2023/12/22 03:26:10;;;;;;;;;;;;;;;;;;5038757;28;5027;-58
2023/12/22 03:28:35;;;;;;;;;;;;;;;;;;5046672;28;4696;-58
2023/12/22 03:31:01;;;;;;;;;;;;;;;;;;5047267;28;3368;-58
2023/12/22 03:33:26;;;;;;;;;;;;;;;;;;5039139;28;5051;-59
2023/12/22 03:35:51;;;;;;;;;;;;;;;;;;5038085;28;5043;-58
2023/12/22 03:38:16;;;;;;;;;;;;;;;;;;5046909;28;5067;-59
2023/12/22 03:40:42;;;;;;;;;;;;;;;;;;5036193;28;5328;-58
2023/12/22 03:43:07;;;;;;;;;;;;;;;;;;5049567;28;2316;-59
2023/12/22 03:45:32;;;;;;;;;;;;;;;;;;5043789;28;5087;-58
2023/12/22 03:47:58;;;;;;;;;;;;;;;;;;5042113;28;5126;-58
2023/12/22 03:50:23;;;;;;;;;;;;;;;;;;5039509;28;4674;-58
2023/12/22 03:52:49;;;;;;;;;;;;;;;;;;5038304;28;5053;-58
2023/12/22 03:55:14;;;;;;;;;;;;;;;;;;5041158;28;2571;-59
2023/12/22 03:57:39;;;;;;;;;;;;;;;;;;5038965;28;4924;-59
2023/12/22 04:00:05;;;;;;;;;;;;;;;;;;5036752;28;5105;-58
2023/12/22 04:02:30;;;;;;;;;;;;;;;;;;5045304;28;5096;-58
2023/12/22 04:04:56;;;;;;;;;;;;;;;;;;5042612;28;5118;-58
2023/12/22 04:07:21;;;;;;;;;;;;;;;;;;5047244;28;3550;-58
2023/12/22 04:09:46;;;;;;;;;;;;;;;;;;5039437;28;4874;-58
2023/12/22 04:12:11;;;;;;;;;;;;;;;;;;5042474;28;4658;-58
2023/12/22 04:14:37;;;;;;;;;;;;;;;;;;5042198;28;5044;-58
2023/12/22 04:17:02;;;;;;;;;;;;;;;;;;5042181;28;4762;-58
2023/12/22 04:19:27;;;;;;;;;;;;;;;;;;5042457;28;5187;-59
2023/12/22 04:21:53;;;;;;;;;;;;;;;;;;5038539;28;3981;-59
2023/12/22 04:24:18;;;;;;;;;;;;;;;;;;5043256;28;4535;-58
2023/12/22 04:26:43;;;;;;;;;;;;;;;;;;5038935;28;5110;-60
2023/12/22 04:29:09;;;;;;;;;;;;;;;;;;5041183;28;5031;-58
2023/12/22 04:31:34;;;;;;;;;;;;;;;;;;5045058;28;5122;-58
2023/12/22 04:33:59;;;;;;;;;;;;;;;;;;5042749;28;5073;-58
2023/12/22 04:36:25;;;;;;;;;;;;;;;;;;5042819;28;4738;-58
2023/12/22 04:38:50;;;;;;;;;;;;;;;;;;5041335;28;4501;-58
2023/12/22 04:41:15;;;;;;;;;;;;;;;;;;5045378;28;5487;-58
2023/12/22 04:43:40;;;;;;;;;;;;;;;;;;5044451;28;4718;-57
2023/12/22 04:46:06;;;;;;;;;;;;;;;;;;5048389;28;1160;-58
2023/12/22 04:48:33;;;;;;;;;;;;;;;;;;5046839;28;4614;-58
2023/12/22 04:50:58;;;;;;;;;;;;;;;;;;5042713;28;4866;-57
2023/12/22 04:53:23;;;;;;;;;;;;;;;;;;5042541;28;4533;-59
2023/12/22 04:55:48;;;;;;;;;;;;;;;;;;5045908;28;4522;-59
2023/12/22 04:58:14;;;;;;;;;;;;;;;;;;5041439;28;3453;-59
2023/12/22 05:00:39;;;;;;;;;;;;;;;;;;5042164;28;5074;-58
2023/12/22 05:03:04;;;;;;;;;;;;;;;;;;5044907;28;5124;-59
2023/12/22 05:05:30;;;;;;;;;;;;;;;;;;5043931;28;5136;-59
2023/12/22 05:07:55;;;;;;;;;;;;;;;;;;5043696;28;4733;-58
2023/12/22 05:10:20;;;;;;;;;;;;;;;;;;5046968;28;3414;-58
2023/12/22 05:12:46;;;;;;;;;;;;;;;;;;5038966;28;5194;-58
2023/12/22 05:15:11;;;;;;;;;;;;;;;;;;5041886;28;5105;-58
2023/12/22 05:17:36;;;;;;;;;;;;;;;;;;5041758;28;5092;-58
2023/12/22 05:20:02;;;;;;;;;;;;;;;;;;5036800;28;5033;-59
2023/12/22 05:22:29;;;;;;;;;;;;;;;;;;5044006;28;5154;-58
2023/12/22 05:24:55;;;;;;;;;;;;;;;;;;5035739;28;3601;-57
2023/12/22 05:27:20;;;;;;;;;;;;;;;;;;5040940;28;5038;-59
2023/12/22 05:29:45;;;;;;;;;;;;;;;;;;5040640;28;5162;-59
2023/12/22 05:32:11;;;;;;;;;;;;;;;;;;5036649;28;5295;-57
2023/12/22 05:34:36;;;;;;;;;;;;;;;;;;5040126;28;5057;-57
2023/12/22 05:37:01;;;;;;;;;;;;;;;;;;5041745;28;3392;-57
2023/12/22 05:39:27;;;;;;;;;;;;;;;;;;5043343;28;4925;-57
2023/12/22 05:41:52;;;;;;;;;;;;;;;;;;5039771;28;5027;-58
2023/12/22 05:44:17;;;;;;;;;;;;;;;;;;5043303;28;4497;-58
2023/12/22 05:46:43;;;;;;;;;;;;;;;;;;5043393;28;4678;-58
2023/12/22 05:49:08;;;;;;;;;;;;;;;;;;5038674;28;3289;-58
2023/12/22 05:51:39;;;;;;;;;;;;;;;;;;5043129;28;4821;-58
2023/12/22 05:54:05;;;;;;;;;;;;;;;;;;5040949;28;5116;-59
2023/12/22 05:56:30;;;;;;;;;;;;;;;;;;5039155;28;5046;-58
2023/12/22 05:58:56;;;;;;;;;;;;;;;;;;5043134;28;5007;-59
2023/12/22 06:01:21;;;;;;;;;;;;;;;;;;5041720;28;3415;-58
2023/12/22 06:03:46;;;;;;;;;;;;;;;;;;5042974;28;5112;-59
2023/12/22 06:06:11;;;;;;;;;;;;;;;;;;5036621;28;4669;-59
2023/12/22 06:08:37;;;;;;;;;;;;;;;;;;5042162;28;4692;-58
2023/12/22 06:11:03;;;;;;;;;;;;;;;;;;5030528;28;5071;-58
2023/12/22 06:13:28;;;;;;;;;;;;;;;;;;5041256;28;5061;-58
2023/12/22 06:15:53;;;;;;;;;;;;;;;;;;5036269;28;3559;-59
2023/12/22 06:18:19;;;;;;;;;;;;;;;;;;5041930;28;4524;-58
2023/12/22 06:20:44;;;;;;;;;;;;;;;;;;5041072;28;4930;-58
2023/12/22 06:23:09;;;;;;;;;;;;;;;;;;5039848;28;5094;-57
2023/12/22 06:25:35;;;;;;;;;;;;;;;;;;5041580;28;5439;-59
2023/12/22 06:28:00;;;;;;;;;;;;;;;;;;5037376;28;3388;-58
2023/12/22 06:30:26;;;;;;;;;;;;;;;;;;5041822;28;5011;-58
2023/12/22 06:32:52;;;;;;;;;;;;;;;;;;5042856;28;5150;-58
2023/12/22 06:35:17;;;;;;;;;;;;;;;;;;5044253;28;5026;-60
2023/12/22 06:37:43;;;;;;;;;;;;;;;;;;5045076;28;5145;-58
2023/12/22 06:40:08;;;;;;;;;;;;;;;;;;5046131;28;1081;-58
2023/12/22 06:42:33;;;;;;;;;;;;;;;;;;5044552;28;4479;-59
2023/12/22 06:44:59;;;;;;;;;;;;;;;;;;5044549;28;4797;-58
2023/12/22 06:47:26;;;;;;;;;;;;;;;;;;5041357;28;4905;-58
2023/12/22 06:49:52;;;;;;;;;;;;;;;;;;5045736;28;5102;-58
2023/12/22 06:52:18;;;;;;;;;;;;;;;;;;5049987;28;1226;-57
2023/12/22 06:54:43;;;;;;;;;;;;;;;;;;5042065;28;5066;-58
2023/12/22 06:57:08;;;;;;;;;;;;;;;;;;5043550;28;4898;-58
2023/12/22 06:59:33;;;;;;;;;;;;;;;;;;5041342;28;5082;-59
2023/12/22 07:01:59;;;;;;;;;;;;;;;;;;5043535;28;5111;-58
2023/12/22 07:07:27;;;;;;;;;;;;;;;;;;5046877;28;5145;-59
2023/12/22 07:09:52;;;;;;;;;;;;;;;;;;5041750;28;3569;-58
2023/12/22 07:12:17;;;;;;;;;;;;;;;;;;5048359;28;5342;-58
2023/12/22 07:14:43;;;;;;;;;;;;;;;;;;5045720;28;5248;-58
2023/12/22 07:17:08;;;;;;;;;;;;;;;;;;5048118;28;5037;-57
2023/12/22 07:19:35;;;;;;;;;;;;;;;;;;5042753;28;4620;-58
2023/12/22 07:22:02;;;;;;;;;;;;;;;;;;5043032;28;1146;-58
2023/12/22 07:24:27;;;;;;;;;;;;;;;;;;5048053;28;4828;-58
2023/12/22 07:26:52;;;;;;;;;;;;;;;;;;5032127;28;4928;-58
2023/12/22 07:29:18;;;;;;;;;;;;;;;;;;5047678;28;4966;-58
2023/12/22 07:31:43;;;;;;;;;;;;;;;;;;5039623;28;5118;-58
2023/12/22 07:34:08;;;;;;;;;;;;;;;;;;5036501;28;4980;-58
2023/12/22 07:36:34;;;;;;;;;;;;;;;;;;5039756;28;4642;-58
2023/12/22 07:39:00;;;;;;;;;;;;;;;;;;5040258;28;5115;-58
2023/12/22 07:41:25;;;;;;;;;;;;;;;;;;5039150;28;4874;-58
2023/12/22 07:43:51;;;;;;;;;;;;;;;;;;5037186;28;5163;-58
2023/12/22 07:46:19;;;;;;;;;;;;;;;;;;5043492;28;1231;-58
2023/12/22 07:48:45;;;;;;;;;;;;;;;;;;5042667;28;5185;-58
2023/12/22 07:51:10;;;;;;;;;;;;;;;;;;5047481;28;5019;-58
2023/12/22 07:53:36;;;;;;;;;;;;;;;;;;5042762;28;4724;-59
2023/12/22 07:56:01;;;;;;;;;;;;;;;;;;5045443;28;4930;-58
2023/12/22 07:58:26;;;;;;;;;;;;;;;;;;5047339;28;5055;-58
2023/12/22 08:00:52;;;;;;;;;;;;;;;;;;5047821;28;2429;-58
2023/12/22 08:03:17;;;;;;;;;;;;;;;;;;5045442;28;5116;-58
2023/12/22 08:05:42;;;;;;;;;;;;;;;;;;5041865;28;5079;-58
2023/12/22 08:08:09;;;;;;;;;;;;;;;;;;5046420;28;4686;-58
2023/12/22 08:10:34;;;;;;;;;;;;;;;;;;5036349;28;4513;-60
2023/12/22 08:12:59;;;;;;;;;;;;;;;;;;5040201;28;3730;-67
2023/12/22 08:15:25;;;;;;;;;;;;;;;;;;5041918;28;5084;-68
2023/12/22 08:17:51;;;;;;;;;;;;;;;;;;5043220;28;5160;-70
2023/12/22 08:20:20;;;;;;;;;;;;;;;;;;5040942;28;4584;-69
2023/12/22 08:22:45;;;;;;;;;;;;;;;;;;5041040;28;4689;-68
2023/12/22 08:25:11;;;;;;;;;;;;;;;;;;5039395;28;3602;-69
2023/12/22 08:27:36;;;;;;;;;;;;;;;;;;5038552;28;4477;-69
2023/12/22 08:30:03;;;;;;;;;;;;;;;;;;5044610;28;5058;-68
2023/12/22 08:32:28;;;;;;;;;;;;;;;;;;5042907;28;5069;-68
2023/12/22 08:34:53;;;;;;;;;;;;;;;;;;5038162;28;5518;-68
2023/12/22 08:37:19;;;;;;;;;;;;;;;;;;5045316;28;3448;-68
2023/12/22 08:39:44;;;;;;;;;;;;;;;;;;5044510;28;5060;-69
2023/12/22 08:42:09;;;;;;;;;;;;;;;;;;5038940;28;5051;-69
2023/12/22 08:44:34;;;;;;;;;;;;;;;;;;5041194;28;5070;-68
2023/12/22 08:47:00;;;;;;;;;;;;;;;;;;5038859;28;4799;-61
2023/12/22 08:49:25;;;;;;;;;;;;;;;;;;5033604;28;4740;-62
2023/12/22 08:51:50;;;;;;;;;;;;;;;;;;5034969;28;3473;-62
2023/12/22 08:54:16;;;;;;;;;;;;;;;;;;5042745;28;4529;-60
2023/12/22 08:56:41;;;;;;;;;;;;;;;;;;5041057;28;4892;-60
2023/12/22 08:59:08;;;;;;;;;;;;;;;;;;5042594;28;4954;-61
2023/12/22 09:01:34;;;;;;;;;;;;;;;;;;5044004;28;4661;-61
2023/12/22 09:03:59;;;;;;;;;;;;;;;;;;5037792;28;3546;-61
2023/12/22 09:06:25;;;;;;;;;;;;;;;;;;5038762;28;4462;-61
2023/12/22 09:08:50;;;;;;;;;;;;;;;;;;5043633;28;5151;-61
2023/12/22 09:11:16;;;;;;;;;;;;;;;;;;5042582;28;4986;-61
2023/12/22 09:13:41;;;;;;;;;;;;;;;;;;5040685;28;4981;-60
2023/12/22 09:16:07;;;;;;;;;;;;;;;;;;5042901;28;3250;-63
2023/12/22 09:18:32;;;;;;;;;;;;;;;;;;5035656;28;5047;-61
2023/12/22 09:20:57;;;;;;;;;;;;;;;;;;5041458;28;4553;-63
2023/12/22 09:23:23;;;;;;;;;;;;;;;;;;5041508;28;4523;-60
2023/12/22 09:25:48;;;;;;;;;;;;;;;;;;5036099;28;4613;-60
2023/12/22 09:28:13;;;;;;;;;;;;;;;;;;5036633;28;3584;-62
2023/12/22 09:30:39;;;;;;;;;;;;;;;;;;5038074;28;5335;-61
2023/12/22 09:33:05;;;;;;;;;;;;;;;;;;5037753;28;4734;-61
2023/12/22 09:35:30;;;;;;;;;;;;;;;;;;5038881;28;5277;-62
2023/12/22 09:37:56;;;;;;;;;;;;;;;;;;5040814;28;4729;-61
2023/12/22 09:40:24;;;;;;;;;;;;;;;;;;5040625;28;3421;-61
2023/12/22 09:42:49;;;;;;;;;;;;;;;;;;5039383;28;5210;-62
2023/12/22 09:45:16;;;;;;;;;;;;;;;;;;5031327;28;5166;-63
2023/12/22 09:47:42;;;;;;;;;;;;;;;;;;5031968;28;5194;-61
2023/12/22 09:50:08;;;;;;;;;;;;;;;;;;5034275;28;4572;-60
2023/12/22 09:52:33;;;;;;;;;;;;;;;;;;5035322;28;5061;-61
2023/12/22 09:54:59;;;;;;;;;;;;;;;;;;5034092;28;3477;-61
2023/12/22 09:57:24;;;;;;;;;;;;;;;;;;5030253;28;4828;-61
2023/12/22 09:59:50;;;;;;;;;;;;;;;;;;5033912;28;5219;-61
2023/12/22 10:02:15;;;;;;;;;;;;;;;;;;5034195;28;5141;-60
2023/12/22 10:04:41;;;;;;;;;;;;;;;;;;5042702;28;4764;-63
2023/12/22 10:07:07;;;;;;;;;;;;;;;;;;5035941;28;3435;-66
2023/12/22 10:09:33;;;;;;;;;;;;;;;;;;5028190;28;4522;-60
2023/12/22 10:11:58;;;;;;;;;;;;;;;;;;5032694;28;5251;-61
2023/12/22 10:14:23;;;;;;;;;;;;;;;;;;5032936;28;4798;-60
2023/12/22 10:16:49;;;;;;;;;;;;;;;;;;5033637;28;5679;-62
2023/12/22 10:19:15;;;;;;;;;;;;;;;;;;5031286;28;3446;-66
2023/12/22 10:21:40;;;;;;;;;;;;;;;;;;5035401;28;5042;-66
2023/12/22 10:24:05;;;;;;;;;;;;;;;;;;5033641;28;5063;-66
2023/12/22 10:26:31;;;;;;;;;;;;;;;;;;5033195;28;5898;-65
2023/12/22 10:28:56;;;;;;;;;;;;;;;;;;5035176;28;5199;-70
2023/12/22 10:31:21;;;;;;;;;;;;;;;;;;5037037;28;3190;-68
2023/12/22 10:33:47;;;;;;;;;;;;;;;;;;5033936;28;5068;-69
2023/12/22 10:36:12;;;;;;;;;;;;;;;;;;5032633;28;4740;-69
2023/12/22 10:38:38;;;;;;;;;;;;;;;;;;5033504;28;4538;-69
2023/12/22 10:41:03;;;;;;;;;;;;;;;;;;5036619;28;4589;-70
2023/12/22 10:43:29;;;;;;;;;;;;;;;;;;5026613;28;4956;-66
2023/12/22 10:45:54;;;;;;;;;;;;;;;;;;5029466;28;3733;-70
2023/12/22 10:48:20;;;;;;;;;;;;;;;;;;5033333;28;4714;-71
2023/12/22 10:50:47;;;;;;;;;;;;;;;;;;5034502;28;5055;-71
2023/12/22 10:53:12;;;;;;;;;;;;;;;;;;5033506;28;4753;-68
2023/12/22 10:55:37;;;;;;;;;;;;;;;;;;5036798;28;4642;-68
2023/12/22 10:58:03;;;;;;;;;;;;;;;;;;5037944;28;1422;-68
2023/12/22 11:00:28;;;;;;;;;;;;;;;;;;5036554;28;5073;-69
2023/12/22 11:02:55;;;;;;;;;;;;;;;;;;5033951;28;4712;-69
2023/12/22 11:05:21;;;;;;;;;;;;;;;;;;5033347;28;4643;-68
2023/12/22 11:07:49;;;;;;;;;;;;;;;;;;5036714;28;5057;-71
2023/12/22 11:10:14;;;;;;;;;;;;;;;;;;5034727;28;3396;-67
2023/12/22 11:12:40;;;;;;;;;;;;;;;;;;5030428;28;4762;-68
2023/12/22 11:15:06;;;;;;;;;;;;;;;;;;5031859;28;5107;-66
2023/12/22 11:17:32;;;;;;;;;;;;;;;;;;5034093;28;5132;-70
2023/12/22 11:19:57;;;;;;;;;;;;;;;;;;5034567;28;4720;-66
2023/12/22 11:22:22;;;;;;;;;;;;;;;;;;5027415;28;3495;-67
2023/12/22 11:24:48;;;;;;;;;;;;;;;;;;5031537;28;4646;-66
2023/12/22 11:27:16;;;;;;;;;;;;;;;;;;5031731;28;5873;-69
2023/12/22 11:29:41;;;;;;;;;;;;;;;;;;5031857;28;4547;-68
2023/12/22 11:32:07;;;;;;;;;;;;;;;;;;5031488;28;5159;-65
2023/12/22 11:34:32;;;;;;;;;;;;;;;;;;5031501;28;5070;-67
2023/12/22 11:36:57;;;;;;;;;;;;;;;;;;5025667;28;3777;-65
2023/12/22 11:39:23;;;;;;;;;;;;;;;;;;5024025;28;4552;-64
2023/12/22 11:41:48;;;;;;;;;;;;;;;;;;5024821;28;5482;-65
2023/12/22 11:44:13;;;;;;;;;;;;;;;;;;5023048;28;5187;-66
2023/12/22 11:46:39;;;;;;;;;;;;;;;;;;5024956;28;5136;-66
2023/12/22 11:49:04;;;;;;;;;;;;;;;;;;5022404;28;3452;-67
2023/12/22 11:51:34;;;;;;;;;;;;;;;;;;5023582;28;4852;-66
2023/12/22 11:53:59;;;;;;;;;;;;;;;;;;5026031;28;5663;-71
2023/12/22 11:56:25;;;;;;;;;;;;;;;;;;5025146;28;5230;-65
2023/12/22 11:58:52;;;;;;;;;;;;;;;;;;5022186;28;4655;-65
2023/12/22 12:01:31;;;;;;;;;;;;;;;;;;5025201;28;3318;-64
2023/12/22 12:04:03;;;;;;;;;;;;;;;;;;5028517;28;4694;-65
2023/12/22 12:06:29;;;;;;;;;;;;;;;;;;5025529;28;5064;-66
2023/12/22 12:08:54;;;;;;;;;;;;;;;;;;5025905;28;5124;-67
2023/12/22 12:11:20;;;;;;;;;;;;;;;;;;5026586;28;5353;-68
2023/12/22 12:13:46;;;;;;;;;;;;;;;;;;5024751;28;4684;-65
2023/12/22 12:16:11;;;;;;;;;;;;;;;;;;5024211;28;3553;-65
2023/12/22 12:18:37;;;;;;;;;;;;;;;;;;5024382;28;5018;-63
2023/12/22 12:21:02;;;;;;;;;;;;;;;;;;5021475;28;5155;-66
2023/12/22 12:23:28;;;;;;;;;;;;;;;;;;5028038;28;4564;-64
2023/12/22 12:25:53;;;;;;;;;;;;;;;;;;5024712;28;4717;-66
2023/12/22 12:28:19;;;;;;;;;;;;;;;;;;5021789;28;3421;-66
2023/12/22 12:30:45;;;;;;;;;;;;;;;;;;5025470;28;5021;-66
2023/12/22 12:33:11;;;;;;;;;;;;;;;;;;5025850;28;5091;-66
2023/12/22 12:35:40;;;;;;;;;;;;;;;;;;5023907;28;5133;-65
2023/12/22 12:38:05;;;;;;;;;;;;;;;;;;5027959;28;4692;-65
2023/12/22 12:40:32;;;;;;;;;;;;;;;;;;5006022;28;5225;-65
2023/12/22 12:42:58;;;;;;;;;;;;;;;;;;5026600;28;1201;-64
2023/12/22 12:45:23;;;;;;;;;;;;;;;;;;5024034;28;5096;-66
2023/12/22 12:47:58;;;;;;;;;;;;;;;;;;5024241;28;4563;-65
2023/12/22 12:50:23;;;;;;;;;;;;;;;;;;5022504;28;4785;-64
2023/12/22 12:52:49;;;;;;;;;;;;;;;;;;5024876;28;4752;-63
2023/12/22 12:55:17;;;;;;;;;;;;;;;;;;5023195;28;3314;-63
2023/12/22 12:57:42;;;;;;;;;;;;;;;;;;5020642;28;4567;-66
2023/12/22 13:00:08;;;;;;;;;;;;;;;;;;5017529;28;5058;-63
2023/12/22 13:02:33;;;;;;;;;;;;;;;;;;5025340;28;5082;-64
2023/12/22 13:04:59;;;;;;;;;;;;;;;;;;5025644;28;4590;-63
2023/12/22 13:07:25;;;;;;;;;;;;;;;;;;5026400;28;5047;-64
2023/12/22 13:09:51;;;;;;;;;;;;;;;;;;5023712;28;3613;-63
2023/12/22 13:12:16;;;;;;;;;;;;;;;;;;5026385;28;5931;-63
2023/12/22 13:14:41;;;;;;;;;;;;;;;;;;5026178;28;5239;-62
2023/12/22 13:17:07;;;;;;;;;;;;;;;;;;5025882;28;5172;-62
2023/12/22 13:19:32;;;;;;;;;;;;;;;;;;5023444;28;5195;-63
2023/12/22 13:21:57;;;;;;;;;;;;;;;;;;5025855;28;3213;-63
2023/12/22 13:24:23;;;;;;;;;;;;;;;;;;5024903;28;5198;-63
2023/12/22 13:26:58;;;;;;;;;;;;;;;;;;5024707;28;5633;-62
2023/12/22 13:29:23;;;;;;;;;;;;;;;;;;5020953;28;4595;-64
2023/12/22 13:31:48;;;;;;;;;;;;;;;;;;5020641;28;5183;-62
2023/12/22 13:34:14;;;;;;;;;;;;;;;;;;5026132;28;5052;-62
2023/12/22 13:36:39;;;;;;;;;;;;;;;;;;5025964;28;4579;-63
2023/12/22 13:39:05;;;;;;;;;;;;;;;;;;5025399;28;4442;-63
2023/12/22 13:41:45;;;;;;;;;;;;;;;;;;5025942;28;5262;-62
2023/12/22 13:44:10;;;;;;;;;;;;;;;;;;5025496;28;5061;-64
2023/12/22 13:46:36;;;;;;;;;;;;;;;;;;5026037;28;5094;-63
2023/12/22 13:49:02;;;;;;;;;;;;;;;;;;5026039;28;1902;-62
2023/12/22 13:51:27;;;;;;;;;;;;;;;;;;5023620;28;4563;-63
2023/12/22 13:53:53;;;;;;;;;;;;;;;;;;5021839;28;4952;-63
2023/12/22 13:56:18;;;;;;;;;;;;;;;;;;5027618;28;5247;-62
2023/12/22 13:58:44;;;;;;;;;;;;;;;;;;5020270;28;4502;-62
2023/12/22 14:01:19;;;;;;;;;;;;;;;;;;5023738;28;3418;-60
2023/12/22 14:03:44;;;;;;;;;;;;;;;;;;5027794;28;4480;-62
2023/12/22 14:06:11;;;;;;;;;;;;;;;;;;5023401;28;4898;-62
2023/12/22 14:08:37;;;;;;;;;;;;;;;;;;5026210;28;4524;-61
2023/12/22 14:11:02;;;;;;;;;;;;;;;;;;5025051;28;4518;-63
2023/12/22 14:13:27;;;;;;;;;;;;;;;;;;5024693;28;4757;-64
2023/12/22 14:15:53;;;;;;;;;;;;;;;;;;5028200;28;1244;-63
2023/12/22 14:18:18;;;;;;;;;;;;;;;;;;5024178;28;4946;-62
2023/12/22 14:20:45;;;;;;;;;;;;;;;;;;5018323;28;5299;-63
2023/12/22 14:23:11;;;;;;;;;;;;;;;;;;5026335;28;5133;-62
2023/12/22 14:25:37;;;;;;;;;;;;;;;;;;5029301;28;5276;-62
2023/12/22 14:28:02;;;;;;;;;;;;;;;;;;5028174;28;3750;-73
2023/12/22 14:30:27;;;;;;;;;;;;;;;;;;5037898;28;4691;-63
2023/12/22 14:32:54;;;;;;;;;;;;;;;;;;5038281;28;4897;-64
2023/12/22 14:35:19;;;;;;;;;;;;;;;;;;5033958;28;5109;-62
2023/12/22 14:37:46;;;;;;;;;;;;;;;;;;5034553;28;4560;-62
2023/12/22 14:40:11;;;;;;;;;;;;;;;;;;5033231;28;3570;-64
2023/12/22 14:42:36;;;;;;;;;;;;;;;;;;5040966;28;5239;-65
2023/12/22 14:45:02;;;;;;;;;;;;;;;;;;5043408;28;5172;-63
2023/12/22 14:47:27;;;;;;;;;;;;;;;;;;5043162;28;4738;-63
2023/12/22 14:49:52;;;;;;;;;;;;;;;;;;5042577;28;5056;-62
2023/12/22 14:52:18;;;;;;;;;;;;;;;;;;5043216;28;3444;-63
2023/12/22 14:54:43;;;;;;;;;;;;;;;;;;5044937;28;5093;-63
2023/12/22 14:57:08;;;;;;;;;;;;;;;;;;5035284;28;4725;-63
2023/12/22 14:59:34;;;;;;;;;;;;;;;;;;5047154;28;4572;-61
2023/12/22 15:01:59;;;;;;;;;;;;;;;;;;5046945;28;5169;-60
2023/12/22 15:04:24;;;;;;;;;;;;;;;;;;5047045;28;5198;-61
2023/12/22 15:06:50;;;;;;;;;;;;;;;;;;5043124;28;3261;-59
2023/12/22 15:09:15;;;;;;;;;;;;;;;;;;5039642;28;4694;-60
2023/12/22 15:11:42;;;;;;;;;;;;;;;;;;5048236;28;5267;-61
2023/12/22 15:14:07;;;;;;;;;;;;;;;;;;5049660;28;5250;-61
2023/12/22 15:16:32;;;;;;;;;;;;;;;;;;5047301;28;4961;-61
2023/12/22 15:18:57;;;;;;;;;;;;;;;;;;5042728;28;3603;-63
2023/12/22 15:21:24;;;;;;;;;;;;;;;;;;5040843;28;5074;-63
2023/12/22 15:23:49;;;;;;;;;;;;;;;;;;5047352;28;4522;-69
2023/12/22 15:26:21;;;;;;;;;;;;;;;;;;5045921;28;4994;-69
2023/12/22 15:28:46;;;;;;;;;;;;;;;;;;5037337;28;5138;-68
2023/12/22 15:31:11;;;;;;;;;;;;;;;;;;5041657;28;3411;-68
2023/12/22 15:33:37;;;;;;;;;;;;;;;;;;5041688;28;5040;-68
2023/12/22 15:36:02;;;;;;;;;;;;;;;;;;5045982;28;4475;-69
2023/12/22 15:38:27;;;;;;;;;;;;;;;;;;5048308;28;5201;-69
2023/12/22 15:40:53;;;;;;;;;;;;;;;;;;5048640;28;5067;-69
2023/12/22 15:43:18;;;;;;;;;;;;;;;;;;5048984;28;1100;-69
2023/12/22 15:45:43;;;;;;;;;;;;;;;;;;5042697;28;5068;-69
2023/12/22 15:48:08;;;;;;;;;;;;;;;;;;5040835;28;5064;-69
2023/12/22 15:50:34;;;;;;;;;;;;;;;;;;5047325;28;4745;-69
2023/12/22 15:52:59;;;;;;;;;;;;;;;;;;5048998;28;5150;-69
2023/12/22 15:55:24;;;;;;;;;;;;;;;;;;5046821;28;4988;-70
2023/12/22 15:57:50;;;;;;;;;;;;;;;;;;5044676;28;1139;-69
2023/12/22 16:00:15;;;;;;;;;;;;;;;;;;5047633;28;4983;-70
2023/12/22 16:02:41;;;;;;;;;;;;;;;;;;5046606;28;5029;-70
2023/12/22 16:05:08;;;;;;;;;;;;;;;;;;5041581;28;5068;-70
2023/12/22 16:07:34;;;;;;;;;;;;;;;;;;5047802;28;5133;-70
2023/12/22 16:09:59;;;;;;;;;;;;;;;;;;5047272;28;1060;-70
2023/12/22 16:12:24;;;;;;;;;;;;;;;;;;5045150;28;5138;-70
2023/12/22 16:14:50;;;;;;;;;;;;;;;;;;5042378;28;5053;-70
2023/12/22 16:17:15;;;;;;;;;;;;;;;;;;5045013;28;4990;-70
2023/12/22 16:19:40;;;;;;;;;;;;;;;;;;5041732;28;4986;-70
2023/12/22 16:22:06;;;;;;;;;;;;;;;;;;5048689;28;1079;-69
2023/12/22 16:24:31;;;;;;;;;;;;;;;;;;5047409;28;4497;-69
2023/12/22 16:26:56;;;;;;;;;;;;;;;;;;5040464;28;4937;-70
2023/12/22 16:29:22;;;;;;;;;;;;;;;;;;5044546;28;4764;-69
2023/12/22 16:31:47;;;;;;;;;;;;;;;;;;5044569;28;5109;-70
2023/12/22 16:34:12;;;;;;;;;;;;;;;;;;5047068;28;5157;-70
2023/12/22 16:36:37;;;;;;;;;;;;;;;;;;5044187;28;5054;-70
2023/12/22 16:39:03;;;;;;;;;;;;;;;;;;5048099;28;5077;-70
2023/12/22 16:41:29;;;;;;;;;;;;;;;;;;5047994;28;4758;-70
2023/12/22 16:43:54;;;;;;;;;;;;;;;;;;5046849;28;5161;-70
2023/12/22 16:46:20;;;;;;;;;;;;;;;;;;5047492;28;1203;-69
2023/12/22 16:48:45;;;;;;;;;;;;;;;;;;5024197;28;4911;-69
2023/12/22 16:51:11;;;;;;;;;;;;;;;;;;5040018;28;5092;-71
2023/12/22 16:53:36;;;;;;;;;;;;;;;;;;5047831;28;5047;-70
2023/12/22 16:56:02;;;;;;;;;;;;;;;;;;5045483;28;5180;-70